createdAt,value
2019-05-21T00:00:28.353Z,3.10
2019-05-21T00:01:28.340Z,2.60
2019-05-21T00:02:28.331Z,2.70
2019-05-21T00:03:28.845Z,2.70
2019-05-21T00:04:28.848Z,3.10
2019-05-21T00:05:28.300Z,2.60
2019-05-21T00:06:28.815Z,2.50
2019-05-21T00:07:28.941Z,2.40
2019-05-21T00:08:28.342Z,2.80
2019-05-21T00:09:28.813Z,2.50
2019-05-21T00:10:28.247Z,2.70
2019-05-21T00:11:28.233Z,2.40
2019-05-21T00:12:28.224Z,2.70
2019-05-21T00:13:28.345Z,2.80
2019-05-21T00:14:28.202Z,2.80
2019-05-21T00:15:28.814Z,2.50
2019-05-21T00:16:28.179Z,2.60
2019-05-21T00:17:28.166Z,2.70
2019-05-21T00:18:28.347Z,2.40
2019-05-21T00:19:28.143Z,2.60
2019-05-21T00:20:28.135Z,2.50
2019-05-21T00:21:28.866Z,2.60
2019-05-21T00:22:28.111Z,2.60
2019-05-21T00:23:28.110Z,2.80
2019-05-21T00:24:28.111Z,2.80
2019-05-21T00:25:28.080Z,2.70
2019-05-21T00:26:28.076Z,2.90
2019-05-21T00:27:28.077Z,2.60
2019-05-21T00:28:28.070Z,2.60
2019-05-21T00:29:28.045Z,3.10
2019-05-21T00:30:28.831Z,2.70
2019-05-21T00:31:28.013Z,2.30
2019-05-21T00:32:28.003Z,2.70
2019-05-21T00:33:27.991Z,2.40
2019-05-21T00:34:42.864Z,2.80
2019-05-21T00:35:27.973Z,2.70
2019-05-21T00:36:27.966Z,2.50
2019-05-21T00:37:28.815Z,2.70
2019-05-21T00:38:28.842Z,2.30
2019-05-21T00:39:27.949Z,2.90
2019-05-21T00:40:27.917Z,2.80
2019-05-21T00:41:27.903Z,2.90
2019-05-21T00:42:27.892Z,2.70
2019-05-21T00:43:27.892Z,2.20
2019-05-21T00:44:27.947Z,2.40
2019-05-21T00:45:27.864Z,2.60
2019-05-21T00:46:27.850Z,2.60
2019-05-21T00:47:27.836Z,2.40
2019-05-21T00:48:27.828Z,2.40
2019-05-21T00:49:27.842Z,2.10
2019-05-21T00:50:27.804Z,2.50
2019-05-21T00:51:27.793Z,2.60
2019-05-21T00:52:27.782Z,2.20
2019-05-21T00:53:27.771Z,2.40
2019-05-21T00:54:27.793Z,2.70
2019-05-21T00:55:27.749Z,2.40
2019-05-21T00:56:27.738Z,2.40
2019-05-21T00:57:27.726Z,2.60
2019-05-21T00:58:27.715Z,2.60
2019-05-21T00:59:27.855Z,2.60
2019-05-21T01:00:27.692Z,2.60
2019-05-21T01:01:27.696Z,2.50
2019-05-21T01:02:27.670Z,2.50
2019-05-21T01:03:27.660Z,2.70
2019-05-21T01:04:27.676Z,2.60
2019-05-21T01:05:27.636Z,2.30
2019-05-21T01:06:28.466Z,2.40
2019-05-21T01:07:27.663Z,2.20
2019-05-21T01:08:27.634Z,2.60
2019-05-21T01:09:27.633Z,2.60
2019-05-21T01:10:27.586Z,2.40
2019-05-21T01:11:28.322Z,2.40
2019-05-21T01:12:28.320Z,2.40
2019-05-21T01:13:27.549Z,2.40
2019-05-21T01:14:27.541Z,2.10
2019-05-21T01:15:27.537Z,2.70
2019-05-21T01:16:27.515Z,2.60
2019-05-21T01:17:27.504Z,2.80
2019-05-21T01:18:27.513Z,2.20
2019-05-21T01:19:27.483Z,2.30
2019-05-21T01:20:27.484Z,2.10
2019-05-21T01:21:28.319Z,2.70
2019-05-21T01:22:27.453Z,2.30
2019-05-21T01:23:27.439Z,2.50
2019-05-21T01:24:28.321Z,2.90
2019-05-21T01:25:27.436Z,2.40
2019-05-21T01:26:27.405Z,1.90
2019-05-21T01:27:27.394Z,2.50
2019-05-21T01:28:27.387Z,2.10
2019-05-21T01:29:28.327Z,2.30
2019-05-21T01:30:27.395Z,2.60
2019-05-21T01:31:27.351Z,2.50
2019-05-21T01:32:27.341Z,2.30
2019-05-21T01:33:28.336Z,2.50
2019-05-21T01:34:27.822Z,2.80
2019-05-21T01:35:27.319Z,2.40
2019-05-21T01:36:27.819Z,2.30
2019-05-21T01:37:27.286Z,2.50
2019-05-21T01:38:27.304Z,2.60
2019-05-21T01:39:27.820Z,2.70
2019-05-21T01:40:27.273Z,2.20
2019-05-21T01:41:27.244Z,2.20
2019-05-21T01:42:27.228Z,2.40
2019-05-21T01:43:27.821Z,2.20
2019-05-21T01:44:27.207Z,2.40
2019-05-21T01:45:27.333Z,2.50
2019-05-21T01:46:27.192Z,2.80
2019-05-21T01:47:27.821Z,2.20
2019-05-21T01:48:27.197Z,2.30
2019-05-21T01:49:27.825Z,2.60
2019-05-21T01:50:27.359Z,2.70
2019-05-21T01:51:27.819Z,2.60
2019-05-21T01:52:27.121Z,1.90
2019-05-21T01:53:27.108Z,2.00
2019-05-21T01:54:27.094Z,2.20
2019-05-21T01:55:27.113Z,2.50
2019-05-21T01:56:27.076Z,2.40
2019-05-21T01:57:27.818Z,2.40
2019-05-21T01:58:27.054Z,2.30
2019-05-21T01:59:27.822Z,2.30
2019-05-21T02:00:27.059Z,2.40
2019-05-21T02:01:27.843Z,2.50
2019-05-21T02:02:27.010Z,2.30
2019-05-21T02:03:27.003Z,2.50
2019-05-21T02:04:27.835Z,2.60
2019-05-21T02:05:33.025Z,2.10
2019-05-21T02:06:26.969Z,2.20
2019-05-21T02:07:26.952Z,2.50
2019-05-21T02:08:27.835Z,2.50
2019-05-21T02:09:26.929Z,2.00
2019-05-21T02:10:32.349Z,1.90
2019-05-21T02:11:26.906Z,2.10
2019-05-21T02:12:26.897Z,2.40
2019-05-21T02:13:26.887Z,2.10
2019-05-21T02:14:26.878Z,2.10
2019-05-21T02:15:26.888Z,2.30
2019-05-21T02:16:26.852Z,2.10
2019-05-21T02:17:26.843Z,2.20
2019-05-21T02:18:27.830Z,2.30
2019-05-21T02:19:26.824Z,2.30
2019-05-21T02:20:26.834Z,2.30
2019-05-21T02:21:26.798Z,2.00
2019-05-21T02:22:26.786Z,2.20
2019-05-21T02:23:26.778Z,2.00
2019-05-21T02:24:26.765Z,2.10
2019-05-21T02:25:27.351Z,2.10
2019-05-21T02:26:26.840Z,2.30
2019-05-21T02:27:26.732Z,2.50
2019-05-21T02:28:26.721Z,1.90
2019-05-21T02:29:26.710Z,2.30
2019-05-21T02:30:26.709Z,2.10
2019-05-21T02:31:26.840Z,2.50
2019-05-21T02:32:26.678Z,2.00
2019-05-21T02:33:26.676Z,2.20
2019-05-21T02:34:26.660Z,2.20
2019-05-21T02:35:27.324Z,1.80
2019-05-21T02:36:26.841Z,2.00
2019-05-21T02:37:26.618Z,2.20
2019-05-21T02:38:26.622Z,2.20
2019-05-21T02:39:26.606Z,1.90
2019-05-21T02:40:26.592Z,2.10
2019-05-21T02:41:26.849Z,2.00
2019-05-21T02:42:26.582Z,1.90
2019-05-21T02:43:26.556Z,2.10
2019-05-21T02:44:26.545Z,2.30
2019-05-21T02:45:27.330Z,2.20
2019-05-21T02:46:26.589Z,2.20
2019-05-21T02:47:26.523Z,2.20
2019-05-21T02:48:26.520Z,2.50
2019-05-21T02:49:26.490Z,2.20
2019-05-21T02:50:26.494Z,2.00
2019-05-21T02:51:26.491Z,2.20
2019-05-21T02:52:26.458Z,2.30
2019-05-21T02:53:27.490Z,1.70
2019-05-21T02:54:40.355Z,2.00
2019-05-21T02:55:26.468Z,1.90
2019-05-21T02:56:26.451Z,2.30
2019-05-21T02:57:26.420Z,2.40
2019-05-21T02:58:27.329Z,1.90
2019-05-21T02:59:26.392Z,2.20
2019-05-21T03:00:26.370Z,2.30
2019-05-21T03:01:26.359Z,2.00
2019-05-21T03:02:26.372Z,2.30
2019-05-21T03:03:27.334Z,2.00
2019-05-21T03:04:26.825Z,2.30
2019-05-21T03:05:26.323Z,2.30
2019-05-21T03:06:26.301Z,2.20
2019-05-21T03:07:26.317Z,2.20
2019-05-21T03:08:26.282Z,2.10
2019-05-21T03:09:26.825Z,2.30
2019-05-21T03:10:26.827Z,2.10
2019-05-21T03:11:26.246Z,2.50
2019-05-21T03:12:26.341Z,2.00
2019-05-21T03:13:26.228Z,2.10
2019-05-21T03:14:26.222Z,2.20
2019-05-21T03:15:26.204Z,1.90
2019-05-21T03:16:26.220Z,1.90
2019-05-21T03:17:26.206Z,2.00
2019-05-21T03:18:26.170Z,1.70
2019-05-21T03:19:26.161Z,2.20
2019-05-21T03:20:26.835Z,2.10
2019-05-21T03:21:26.829Z,2.10
2019-05-21T03:22:26.153Z,2.20
2019-05-21T03:23:26.117Z,1.90
2019-05-21T03:24:26.106Z,2.20
2019-05-21T03:25:26.093Z,2.20
2019-05-21T03:26:26.829Z,2.10
2019-05-21T03:27:26.093Z,1.80
2019-05-21T03:28:26.164Z,2.50
2019-05-21T03:29:26.830Z,2.30
2019-05-21T03:30:26.069Z,2.10
2019-05-21T03:31:26.028Z,1.90
2019-05-21T03:32:26.043Z,1.90
2019-05-21T03:33:26.029Z,2.60
2019-05-21T03:34:26.832Z,1.80
2019-05-21T03:35:26.010Z,1.90
2019-05-21T03:36:33.345Z,2.40
2019-05-21T03:37:25.986Z,2.10
2019-05-21T03:38:25.954Z,1.80
2019-05-21T03:39:26.831Z,2.10
2019-05-21T03:40:25.930Z,2.20
2019-05-21T03:41:26.831Z,1.90
2019-05-21T03:42:25.941Z,1.80
2019-05-21T03:43:25.897Z,2.00
2019-05-21T03:44:25.890Z,1.90
2019-05-21T03:45:25.874Z,2.20
2019-05-21T03:46:25.863Z,1.70
2019-05-21T03:47:25.856Z,1.90
2019-05-21T03:48:25.860Z,2.00
2019-05-21T03:49:26.342Z,2.20
2019-05-21T03:50:25.818Z,1.80
2019-05-21T03:51:25.808Z,1.80
2019-05-21T03:52:25.795Z,1.70
2019-05-21T03:53:25.810Z,2.30
2019-05-21T03:54:25.777Z,2.00
2019-05-21T03:55:25.766Z,2.00
2019-05-21T03:56:26.332Z,1.90
2019-05-21T03:57:26.331Z,2.00
2019-05-21T03:58:25.742Z,2.10
2019-05-21T03:59:25.721Z,2.20
2019-05-21T04:00:25.711Z,1.90
2019-05-21T04:01:25.722Z,2.10
2019-05-21T04:02:25.687Z,2.10
2019-05-21T04:03:25.703Z,2.10
2019-05-21T04:04:25.666Z,2.20
2019-05-21T04:05:25.679Z,1.70
2019-05-21T04:06:28.876Z,1.80
2019-05-21T04:07:25.634Z,2.10
2019-05-21T04:08:25.635Z,2.10
2019-05-21T04:09:25.655Z,2.10
2019-05-21T04:10:25.598Z,1.90
2019-05-21T04:11:25.591Z,2.10
2019-05-21T04:12:26.332Z,2.00
2019-05-21T04:13:25.584Z,2.00
2019-05-21T04:14:25.556Z,2.10
2019-05-21T04:15:25.541Z,1.90
2019-05-21T04:16:25.531Z,2.00
2019-05-21T04:17:25.522Z,2.30
2019-05-21T04:18:25.869Z,1.80
2019-05-21T04:19:25.497Z,2.10
2019-05-21T04:20:25.487Z,1.90
2019-05-21T04:21:25.475Z,1.70
2019-05-21T04:22:25.466Z,2.10
2019-05-21T04:23:25.852Z,1.80
2019-05-21T04:24:25.445Z,2.00
2019-05-21T04:25:25.440Z,2.00
2019-05-21T04:26:26.336Z,1.90
2019-05-21T04:27:25.409Z,2.00
2019-05-21T04:28:25.429Z,1.90
2019-05-21T04:29:25.401Z,1.80
2019-05-21T04:30:25.381Z,2.30
2019-05-21T04:31:25.365Z,1.80
2019-05-21T04:32:25.352Z,2.00
2019-05-21T04:33:25.366Z,2.00
2019-05-21T04:34:25.354Z,1.90
2019-05-21T04:35:25.851Z,2.30
2019-05-21T04:36:25.315Z,1.90
2019-05-21T04:37:25.301Z,1.90
2019-05-21T04:38:25.308Z,1.80
2019-05-21T04:39:25.290Z,2.20
2019-05-21T04:40:25.836Z,1.80
2019-05-21T04:41:25.258Z,1.80
2019-05-21T04:42:25.246Z,2.30
2019-05-21T04:43:25.354Z,2.10
2019-05-21T04:44:25.221Z,1.90
2019-05-21T04:45:25.206Z,2.20
2019-05-21T04:46:25.200Z,1.90
2019-05-21T04:47:25.188Z,1.90
2019-05-21T04:48:25.365Z,2.00
2019-05-21T04:49:25.166Z,1.90
2019-05-21T04:50:25.164Z,2.10
2019-05-21T04:51:25.147Z,1.80
2019-05-21T04:52:25.843Z,1.60
2019-05-21T04:53:25.120Z,1.60
2019-05-21T04:54:25.123Z,2.20
2019-05-21T04:55:25.099Z,2.20
2019-05-21T04:56:25.090Z,1.90
2019-05-21T04:57:25.078Z,2.00
2019-05-21T04:58:25.071Z,1.60
2019-05-21T04:59:25.069Z,1.90
2019-05-21T05:00:25.044Z,1.90
2019-05-21T05:01:25.033Z,1.60
2019-05-21T05:02:25.837Z,1.90
2019-05-21T05:03:25.012Z,2.00
2019-05-21T05:04:25.360Z,1.90
2019-05-21T05:05:24.996Z,1.80
2019-05-21T05:06:24.976Z,1.60
2019-05-21T05:07:28.381Z,2.20
2019-05-21T05:08:24.956Z,2.00
2019-05-21T05:09:24.976Z,1.90
2019-05-21T05:10:24.932Z,2.00
2019-05-21T05:11:24.924Z,1.90
2019-05-21T05:12:24.909Z,2.00
2019-05-21T05:13:24.899Z,2.10
2019-05-21T05:14:25.349Z,1.50
2019-05-21T05:15:24.888Z,2.00
2019-05-21T05:16:24.867Z,2.10
2019-05-21T05:17:24.861Z,2.00
2019-05-21T05:18:25.843Z,1.90
2019-05-21T05:19:24.861Z,2.10
2019-05-21T05:20:24.830Z,1.70
2019-05-21T05:21:24.813Z,2.10
2019-05-21T05:22:24.801Z,1.80
2019-05-21T05:23:24.792Z,1.80
2019-05-21T05:24:24.792Z,1.80
2019-05-21T05:25:24.768Z,1.60
2019-05-21T05:26:24.756Z,1.80
2019-05-21T05:27:24.741Z,2.00
2019-05-21T05:28:24.733Z,2.20
2019-05-21T05:29:24.750Z,2.00
2019-05-21T05:30:25.337Z,1.70
2019-05-21T05:31:24.715Z,1.60
2019-05-21T05:32:24.688Z,1.80
2019-05-21T05:33:24.679Z,2.20
2019-05-21T05:34:24.687Z,1.60
2019-05-21T05:35:24.656Z,2.20
2019-05-21T05:36:25.349Z,1.70
2019-05-21T05:37:25.341Z,1.50
2019-05-21T05:38:25.341Z,1.90
2019-05-21T05:39:24.634Z,1.90
2019-05-21T05:40:24.599Z,2.10
2019-05-21T05:41:24.590Z,2.00
2019-05-21T05:42:24.581Z,1.60
2019-05-21T05:43:25.338Z,1.90
2019-05-21T05:44:24.859Z,1.90
2019-05-21T05:45:24.559Z,1.70
2019-05-21T05:46:24.540Z,2.00
2019-05-21T05:47:24.524Z,1.90
2019-05-21T05:48:24.514Z,1.70
2019-05-21T05:49:24.874Z,1.70
2019-05-21T05:50:24.492Z,1.90
2019-05-21T05:51:25.351Z,1.60
2019-05-21T05:52:24.471Z,1.90
2019-05-21T05:53:24.464Z,2.00
2019-05-21T05:54:25.404Z,1.80
2019-05-21T05:55:24.461Z,1.80
2019-05-21T05:56:25.339Z,2.00
2019-05-21T05:57:24.440Z,1.90
2019-05-21T05:58:24.442Z,1.70
2019-05-21T05:59:25.341Z,2.00
2019-05-21T06:00:24.856Z,1.80
2019-05-21T06:01:24.444Z,1.50
2019-05-21T06:02:24.363Z,1.60
2019-05-21T06:03:24.351Z,1.90
2019-05-21T06:04:24.839Z,2.10
2019-05-21T06:05:24.353Z,1.70
2019-05-21T06:06:24.317Z,2.10
2019-05-21T06:07:24.305Z,1.90
2019-05-21T06:08:24.295Z,2.00
2019-05-21T06:09:24.290Z,1.80
2019-05-21T06:10:24.365Z,1.70
2019-05-21T06:11:24.847Z,2.00
2019-05-21T06:12:24.341Z,2.00
2019-05-21T06:13:24.241Z,2.00
2019-05-21T06:14:24.228Z,2.00
2019-05-21T06:15:24.244Z,1.90
2019-05-21T06:16:24.206Z,2.30
2019-05-21T06:17:24.216Z,2.00
2019-05-21T06:18:24.186Z,1.80
2019-05-21T06:19:24.177Z,1.60
2019-05-21T06:20:24.229Z,2.10
2019-05-21T06:21:24.155Z,1.70
2019-05-21T06:22:24.142Z,1.70
2019-05-21T06:23:24.131Z,1.70
2019-05-21T06:24:24.851Z,1.80
2019-05-21T06:25:24.172Z,1.70
2019-05-21T06:26:24.102Z,2.10
2019-05-21T06:27:24.846Z,1.60
2019-05-21T06:28:24.847Z,1.60
2019-05-21T06:29:24.068Z,1.80
2019-05-21T06:30:24.080Z,1.50
2019-05-21T06:31:24.068Z,1.90
2019-05-21T06:32:24.036Z,1.80
2019-05-21T06:33:24.023Z,1.50
2019-05-21T06:34:24.021Z,1.60
2019-05-21T06:35:24.022Z,1.90
2019-05-21T06:36:24.028Z,2.10
2019-05-21T06:37:23.982Z,1.70
2019-05-21T06:38:23.970Z,1.70
2019-05-21T06:39:24.846Z,1.60
2019-05-21T06:40:23.966Z,1.60
2019-05-21T06:41:23.938Z,2.10
2019-05-21T06:42:24.843Z,1.70
2019-05-21T06:43:23.927Z,2.00
2019-05-21T06:44:24.844Z,1.70
2019-05-21T06:45:24.386Z,2.00
2019-05-21T06:46:23.888Z,1.90
2019-05-21T06:47:24.856Z,2.10
2019-05-21T06:48:23.866Z,2.50
2019-05-21T06:49:24.858Z,2.20
2019-05-21T06:50:23.850Z,2.80
2019-05-21T06:51:23.855Z,3.30
2019-05-21T06:52:23.820Z,2.80
2019-05-21T06:53:23.812Z,2.80
2019-05-21T06:54:23.851Z,2.70
2019-05-21T06:55:23.786Z,3.40
2019-05-21T06:56:23.860Z,3.00
2019-05-21T06:57:23.768Z,3.40
2019-05-21T06:58:23.751Z,3.70
2019-05-21T06:59:23.739Z,3.00
2019-05-21T07:00:23.730Z,3.60
2019-05-21T07:01:28.837Z,3.50
2019-05-21T07:02:23.714Z,3.40
2019-05-21T07:03:23.696Z,3.70
2019-05-21T07:04:23.696Z,3.10
2019-05-21T07:05:23.753Z,3.80
2019-05-21T07:06:23.872Z,3.40
2019-05-21T07:07:23.657Z,3.80
2019-05-21T07:08:34.284Z,4.30
2019-05-21T07:09:23.654Z,3.30
2019-05-21T07:10:23.629Z,3.70
2019-05-21T07:11:23.895Z,3.80
2019-05-21T07:12:23.624Z,4.20
2019-05-21T07:13:23.590Z,3.70
2019-05-21T07:14:23.574Z,4.30
2019-05-21T07:15:23.562Z,4.00
2019-05-21T07:16:23.583Z,4.20
2019-05-21T07:17:23.541Z,3.80
2019-05-21T07:18:24.347Z,4.30
2019-05-21T07:19:23.520Z,3.90
2019-05-21T07:20:23.536Z,4.40
2019-05-21T07:21:23.605Z,3.90
2019-05-21T07:22:23.487Z,3.60
2019-05-21T07:23:23.476Z,4.10
2019-05-21T07:24:28.077Z,4.00
2019-05-21T07:25:23.455Z,4.00
2019-05-21T07:26:23.454Z,4.40
2019-05-21T07:27:23.443Z,4.50
2019-05-21T07:28:23.449Z,4.10
2019-05-21T07:29:24.347Z,4.90
2019-05-21T07:30:23.401Z,5.10
2019-05-21T07:31:23.386Z,4.80
2019-05-21T07:32:23.871Z,5.30
2019-05-21T07:33:23.368Z,4.30
2019-05-21T07:34:23.358Z,4.40
2019-05-21T07:35:23.355Z,4.60
2019-05-21T07:36:23.343Z,4.50
2019-05-21T07:37:23.333Z,4.30
2019-05-21T07:38:23.310Z,4.90
2019-05-21T07:39:23.855Z,4.00
2019-05-21T07:40:23.287Z,4.10
2019-05-21T07:41:23.875Z,4.90
2019-05-21T07:42:23.285Z,4.70
2019-05-21T07:43:23.261Z,5.20
2019-05-21T07:44:23.264Z,4.80
2019-05-21T07:45:23.856Z,4.50
2019-05-21T07:46:23.847Z,4.30
2019-05-21T07:47:23.227Z,5.10
2019-05-21T07:48:23.854Z,4.00
2019-05-21T07:49:23.192Z,4.80
2019-05-21T07:50:23.190Z,4.30
2019-05-21T07:51:23.166Z,4.10
2019-05-21T07:52:23.373Z,4.70
2019-05-21T07:53:23.874Z,4.40
2019-05-21T07:54:23.146Z,4.80
2019-05-21T07:55:23.123Z,4.70
2019-05-21T07:56:23.111Z,4.40
2019-05-21T07:57:23.118Z,4.60
2019-05-21T07:58:23.096Z,5.00
2019-05-21T07:59:23.080Z,4.10
2019-05-21T08:00:23.067Z,3.80
2019-05-21T08:01:23.060Z,4.20
2019-05-21T08:02:23.372Z,4.20
2019-05-21T08:03:23.870Z,4.50
2019-05-21T08:04:23.028Z,4.30
2019-05-21T08:05:23.023Z,3.80
2019-05-21T08:06:23.005Z,3.60
2019-05-21T08:07:23.025Z,4.00
2019-05-21T08:08:23.035Z,4.00
2019-05-21T08:09:22.970Z,3.80
2019-05-21T08:10:22.981Z,4.20
2019-05-21T08:11:22.947Z,4.10
2019-05-21T08:12:37.842Z,3.90
2019-05-21T08:13:22.930Z,3.40
2019-05-21T08:14:22.923Z,3.80
2019-05-21T08:15:23.858Z,3.80
2019-05-21T08:16:22.893Z,4.50
2019-05-21T08:17:23.366Z,4.10
2019-05-21T08:18:23.849Z,4.00
2019-05-21T08:19:22.870Z,3.80
2019-05-21T08:20:22.852Z,3.50
2019-05-21T08:21:22.836Z,3.80
2019-05-21T08:22:22.843Z,3.80
2019-05-21T08:23:22.818Z,3.90
2019-05-21T08:24:22.808Z,3.30
2019-05-21T08:25:22.795Z,4.20
2019-05-21T08:26:22.785Z,3.40
2019-05-21T08:27:22.788Z,3.60
2019-05-21T08:28:22.761Z,3.50
2019-05-21T08:29:22.750Z,3.70
2019-05-21T08:30:22.737Z,3.30
2019-05-21T08:31:22.734Z,3.80
2019-05-21T08:32:22.731Z,3.90
2019-05-21T08:33:22.750Z,3.70
2019-05-21T08:34:23.365Z,4.30
2019-05-21T08:35:22.680Z,4.70
2019-05-21T08:36:23.371Z,4.70
2019-05-21T08:37:23.378Z,5.20
2019-05-21T08:38:22.657Z,4.70
2019-05-21T08:39:28.917Z,4.40
2019-05-21T08:40:22.624Z,4.70
2019-05-21T08:41:22.615Z,4.60
2019-05-21T08:42:22.603Z,4.30
2019-05-21T08:43:22.604Z,4.50
2019-05-21T08:44:22.584Z,4.00
2019-05-21T08:45:22.570Z,4.10
2019-05-21T08:46:22.560Z,4.40
2019-05-21T08:47:22.571Z,4.00
2019-05-21T08:48:22.559Z,3.70
2019-05-21T08:49:22.530Z,3.90
2019-05-21T08:50:22.517Z,3.70
2019-05-21T08:51:22.514Z,3.40
2019-05-21T08:52:22.501Z,3.50
2019-05-21T08:53:22.503Z,3.90
2019-05-21T08:54:23.418Z,3.60
2019-05-21T08:55:23.354Z,4.00
2019-05-21T08:56:22.457Z,3.90
2019-05-21T08:57:22.445Z,3.10
2019-05-21T08:58:22.445Z,3.60
2019-05-21T08:59:22.417Z,3.60
2019-05-21T09:00:23.358Z,3.60
2019-05-21T09:01:22.409Z,3.70
2019-05-21T09:02:22.390Z,3.50
2019-05-21T09:03:22.877Z,3.30
2019-05-21T09:04:22.438Z,4.00
2019-05-21T09:05:22.354Z,3.40
2019-05-21T09:06:22.861Z,2.90
2019-05-21T09:07:22.366Z,3.60
2019-05-21T09:08:22.337Z,3.30
2019-05-21T09:09:22.342Z,4.00
2019-05-21T09:10:22.301Z,3.60
2019-05-21T09:11:22.857Z,3.20
2019-05-21T09:12:22.857Z,3.40
2019-05-21T09:13:22.284Z,3.20
2019-05-21T09:14:22.277Z,3.70
2019-05-21T09:15:22.247Z,3.20
2019-05-21T09:16:22.283Z,3.10
2019-05-21T09:17:22.271Z,3.30
2019-05-21T09:18:22.244Z,3.20
2019-05-21T09:19:22.204Z,2.50
2019-05-21T09:20:22.216Z,2.90
2019-05-21T09:21:22.862Z,3.20
2019-05-21T09:22:22.183Z,2.80
2019-05-21T09:23:22.196Z,2.90
2019-05-21T09:24:22.856Z,2.90
2019-05-21T09:25:22.152Z,3.60
2019-05-21T09:26:22.132Z,3.40
2019-05-21T09:27:22.125Z,3.10
2019-05-21T09:28:22.123Z,3.20
2019-05-21T09:29:22.857Z,3.10
2019-05-21T09:30:22.090Z,3.70
2019-05-21T09:31:22.079Z,3.20
2019-05-21T09:32:22.073Z,3.60
2019-05-21T09:33:22.071Z,3.10
2019-05-21T09:34:22.856Z,3.40
2019-05-21T09:35:22.036Z,2.80
2019-05-21T09:36:25.031Z,3.20
2019-05-21T09:37:22.862Z,3.40
2019-05-21T09:38:22.018Z,3.40
2019-05-21T09:39:22.899Z,3.00
2019-05-21T09:40:22.859Z,3.10
2019-05-21T09:41:21.994Z,3.20
2019-05-21T09:42:21.956Z,3.40
2019-05-21T09:43:21.964Z,2.90
2019-05-21T09:44:21.949Z,3.30
2019-05-21T09:45:21.931Z,3.20
2019-05-21T09:46:22.879Z,3.50
2019-05-21T09:47:22.867Z,3.60
2019-05-21T09:48:21.934Z,3.90
2019-05-21T09:49:22.874Z,3.60
2019-05-21T09:50:22.868Z,3.80
2019-05-21T09:51:21.905Z,3.60
2019-05-21T09:52:22.365Z,3.80
2019-05-21T09:53:21.926Z,3.00
2019-05-21T09:54:22.355Z,3.40
2019-05-21T09:55:21.855Z,3.40
2019-05-21T09:56:21.801Z,3.30
2019-05-21T09:57:21.800Z,3.60
2019-05-21T09:58:21.882Z,2.90
2019-05-21T09:59:21.771Z,3.20
2019-05-21T10:00:22.368Z,3.00
2019-05-21T10:01:21.757Z,3.40
2019-05-21T10:02:22.358Z,3.60
2019-05-21T10:03:21.733Z,2.90
2019-05-21T10:04:21.738Z,3.70
2019-05-21T10:05:21.715Z,3.30
2019-05-21T10:06:21.722Z,4.10
2019-05-21T10:07:38.290Z,3.80
2019-05-21T10:08:21.682Z,3.60
2019-05-21T10:09:22.258Z,4.00
2019-05-21T10:10:23.483Z,3.60
2019-05-21T10:11:22.555Z,4.50
2019-05-21T10:12:22.713Z,4.50
2019-05-21T10:13:22.595Z,4.00
2019-05-21T10:14:22.015Z,3.70
2019-05-21T10:15:22.388Z,5.00
2019-05-21T10:16:21.664Z,4.40
2019-05-21T10:17:22.387Z,4.30
2019-05-21T10:18:22.458Z,3.90
2019-05-21T10:19:21.873Z,4.60
2019-05-21T10:20:22.362Z,3.60
2019-05-21T10:21:21.576Z,4.60
2019-05-21T10:22:21.525Z,4.00
2019-05-21T10:23:22.361Z,3.60
2019-05-21T10:24:21.522Z,4.00
2019-05-21T10:25:22.360Z,3.70
2019-05-21T10:26:21.482Z,3.30
2019-05-21T10:27:21.472Z,3.60
2019-05-21T10:28:21.459Z,4.00
2019-05-21T10:29:21.482Z,3.90
2019-05-21T10:30:22.359Z,3.50
2019-05-21T10:31:22.361Z,4.20
2019-05-21T10:32:22.366Z,4.40
2019-05-21T10:33:21.419Z,4.20
2019-05-21T10:34:21.443Z,4.10
2019-05-21T10:35:21.381Z,4.30
2019-05-21T10:36:21.382Z,4.60
2019-05-21T10:37:21.363Z,4.50
2019-05-21T10:38:21.353Z,4.30
2019-05-21T10:39:21.359Z,4.80
2019-05-21T10:40:21.330Z,4.20
2019-05-21T10:41:21.329Z,4.10
2019-05-21T10:42:21.332Z,3.80
2019-05-21T10:43:21.862Z,5.10
2019-05-21T10:44:21.305Z,4.20
2019-05-21T10:45:21.294Z,4.30
2019-05-21T10:46:21.884Z,4.50
2019-05-21T10:47:21.863Z,4.20
2019-05-21T10:48:21.247Z,4.20
2019-05-21T10:49:21.376Z,5.00
2019-05-21T10:50:21.275Z,5.40
2019-05-21T10:51:21.224Z,4.80
2019-05-21T10:52:21.216Z,5.00
2019-05-21T10:53:21.207Z,5.00
2019-05-21T10:54:21.381Z,5.20
2019-05-21T10:55:21.259Z,4.60
2019-05-21T10:56:21.164Z,4.60
2019-05-21T10:57:21.157Z,4.90
2019-05-21T10:58:21.133Z,5.30
2019-05-21T10:59:21.168Z,5.70
2019-05-21T11:00:23.129Z,5.90
2019-05-21T11:01:21.873Z,5.10
2019-05-21T11:02:21.092Z,5.60
2019-05-21T11:03:21.354Z,5.00
2019-05-21T11:04:21.074Z,5.20
2019-05-21T11:05:21.374Z,5.20
2019-05-21T11:06:21.867Z,5.10
2019-05-21T11:07:21.075Z,5.20
2019-05-21T11:08:23.887Z,5.00
2019-05-21T11:09:21.067Z,5.40
2019-05-21T11:10:21.019Z,5.60
2019-05-21T11:11:21.930Z,5.00
2019-05-21T11:12:20.991Z,5.00
2019-05-21T11:13:20.972Z,5.30
2019-05-21T11:14:20.961Z,4.90
2019-05-21T11:15:21.022Z,5.90
2019-05-21T11:16:20.940Z,5.00
2019-05-21T11:17:21.869Z,4.90
2019-05-21T11:18:20.938Z,4.70
2019-05-21T11:19:20.909Z,5.50
2019-05-21T11:20:20.910Z,5.50
2019-05-21T11:21:20.884Z,5.70
2019-05-21T11:22:20.875Z,4.90
2019-05-21T11:23:21.383Z,5.10
2019-05-21T11:24:20.852Z,5.10
2019-05-21T11:25:20.883Z,5.20
2019-05-21T11:26:20.842Z,5.00
2019-05-21T11:27:21.402Z,4.90
2019-05-21T11:28:21.367Z,5.10
2019-05-21T11:29:20.797Z,5.10
2019-05-21T11:30:20.804Z,4.90
2019-05-21T11:31:20.779Z,5.00
2019-05-21T11:32:20.781Z,5.50
2019-05-21T11:33:21.369Z,5.30
2019-05-21T11:34:21.373Z,5.10
2019-05-21T11:35:20.891Z,4.60
2019-05-21T11:36:20.723Z,5.10
2019-05-21T11:37:21.379Z,5.10
2019-05-21T11:38:20.709Z,4.80
2019-05-21T11:39:21.368Z,5.30
2019-05-21T11:40:20.693Z,5.20
2019-05-21T11:41:21.386Z,5.70
2019-05-21T11:42:20.681Z,5.70
2019-05-21T11:43:20.657Z,5.30
2019-05-21T11:44:20.643Z,5.40
2019-05-21T11:45:31.800Z,5.40
2019-05-21T11:46:20.667Z,5.10
2019-05-21T11:47:20.621Z,4.70
2019-05-21T11:48:20.597Z,5.00
2019-05-21T11:49:20.592Z,4.40
2019-05-21T11:50:20.880Z,5.00
2019-05-21T11:51:21.379Z,5.40
2019-05-21T11:52:20.558Z,4.80
2019-05-21T11:53:20.574Z,4.70
2019-05-21T11:54:20.538Z,4.90
2019-05-21T11:55:20.525Z,4.90
2019-05-21T11:56:20.528Z,5.20
2019-05-21T11:57:20.501Z,5.20
2019-05-21T11:58:20.496Z,4.60
2019-05-21T11:59:20.478Z,4.50
2019-05-21T12:00:21.629Z,4.90
2019-05-21T12:01:20.493Z,4.70
2019-05-21T12:02:20.523Z,5.00
2019-05-21T12:03:20.448Z,4.60
2019-05-21T12:04:20.442Z,3.80
2019-05-21T12:05:20.414Z,4.20
2019-05-21T12:06:20.417Z,5.30
2019-05-21T12:07:20.431Z,4.70
2019-05-21T12:08:20.512Z,4.40
2019-05-21T12:09:20.370Z,4.10
2019-05-21T12:10:20.363Z,5.30
2019-05-21T12:11:20.367Z,5.50
2019-05-21T12:12:20.346Z,4.60
2019-05-21T12:13:20.942Z,4.30
2019-05-21T12:14:20.319Z,4.90
2019-05-21T12:15:20.877Z,4.40
2019-05-21T12:16:20.315Z,4.60
2019-05-21T12:17:20.289Z,4.30
2019-05-21T12:18:20.283Z,3.90
2019-05-21T12:19:20.266Z,4.50
2019-05-21T12:20:35.446Z,4.30
2019-05-21T12:21:20.259Z,4.20
2019-05-21T12:22:20.232Z,3.80
2019-05-21T12:23:20.907Z,4.20
2019-05-21T12:24:20.214Z,4.20
2019-05-21T12:25:20.239Z,4.60
2019-05-21T12:26:20.417Z,4.20
2019-05-21T12:27:20.197Z,4.40
2019-05-21T12:28:20.188Z,3.80
2019-05-21T12:29:20.163Z,4.50
2019-05-21T12:30:20.163Z,4.70
2019-05-21T12:31:20.398Z,4.80
2019-05-21T12:32:21.298Z,4.50
2019-05-21T12:33:20.942Z,4.40
2019-05-21T12:34:20.951Z,4.10
2019-05-21T12:35:20.124Z,4.20
2019-05-21T12:36:20.103Z,4.40
2019-05-21T12:37:20.076Z,4.40
2019-05-21T12:38:20.879Z,4.70
2019-05-21T12:39:20.054Z,4.30
2019-05-21T12:40:20.045Z,4.60
2019-05-21T12:41:20.049Z,4.10
2019-05-21T12:42:20.029Z,3.90
2019-05-21T12:43:20.037Z,4.60
2019-05-21T12:44:20.878Z,4.50
2019-05-21T12:45:20.019Z,4.50
2019-05-21T12:46:20.084Z,4.20
2019-05-21T12:47:19.977Z,4.00
2019-05-21T12:48:19.959Z,4.20
2019-05-21T12:49:20.896Z,3.80
2019-05-21T12:50:19.943Z,4.00
2019-05-21T12:51:19.993Z,4.20
2019-05-21T12:52:19.917Z,3.90
2019-05-21T12:53:19.907Z,4.20
2019-05-21T12:54:19.907Z,4.00
2019-05-21T12:55:20.882Z,4.30
2019-05-21T12:56:20.406Z,4.10
2019-05-21T12:57:19.862Z,4.10
2019-05-21T12:58:19.855Z,3.90
2019-05-21T12:59:20.375Z,3.60
2019-05-21T13:00:19.838Z,3.50
2019-05-21T13:01:19.828Z,4.10
2019-05-21T13:02:19.835Z,4.10
2019-05-21T13:03:19.799Z,3.80
2019-05-21T13:04:20.383Z,4.60
2019-05-21T13:05:20.526Z,4.00
2019-05-21T13:06:19.866Z,3.80
2019-05-21T13:07:19.946Z,3.90
2019-05-21T13:08:19.757Z,4.10
2019-05-21T13:09:32.204Z,4.30
2019-05-21T13:10:19.727Z,4.10
2019-05-21T13:11:19.716Z,4.10
2019-05-21T13:12:19.730Z,4.40
2019-05-21T13:13:20.374Z,3.70
2019-05-21T13:14:19.683Z,4.00
2019-05-21T13:15:19.703Z,3.80
2019-05-21T13:16:19.677Z,3.90
2019-05-21T13:17:19.692Z,3.90
2019-05-21T13:18:20.375Z,4.40